createdAt,value
2022-11-25T00:01:34.432Z,5.72
2022-11-25T00:04:02.027Z,5.71
2022-11-25T00:06:33.935Z,5.68
2022-11-25T00:09:11.050Z,5.79
2022-11-25T00:11:42.622Z,5.94
2022-11-25T00:14:13.208Z,6.03
2022-11-25T00:16:45.170Z,6.13
2022-11-25T00:19:20.188Z,6.16
2022-11-25T00:21:49.676Z,6.21
2022-11-25T00:24:17.121Z,6.24
2022-11-25T00:26:46.650Z,6.28
2022-11-25T00:29:14.681Z,6.30
2022-11-25T00:31:42.165Z,6.26
2022-11-25T00:34:14.746Z,6.31
2022-11-25T00:36:45.349Z,6.30
2022-11-25T00:39:18.508Z,6.33
2022-11-25T00:42:05.365Z,6.31
2022-11-25T00:44:41.801Z,6.29
2022-11-25T00:47:12.610Z,6.32
2022-11-25T00:49:45.093Z,6.38
2022-11-25T00:52:18.782Z,6.38
2022-11-25T00:54:51.772Z,6.37
2022-11-25T00:57:23.837Z,6.32
2022-11-25T00:59:51.431Z,6.31
2022-11-25T01:02:21.662Z,6.32
2022-11-25T01:04:48.800Z,6.30
2022-11-25T01:07:19.151Z,6.33
2022-11-25T01:09:46.270Z,6.30
2022-11-25T01:12:13.527Z,6.24
2022-11-25T01:14:40.710Z,6.17
2022-11-25T01:17:07.992Z,6.20
2022-11-25T01:19:40.062Z,6.13
2022-11-25T01:22:08.594Z,6.11
2022-11-25T01:24:35.983Z,6.07
2022-11-25T01:27:05.957Z,6.01
2022-11-25T01:29:33.023Z,5.94
2022-11-25T01:32:02.769Z,5.93
2022-11-25T01:34:32.111Z,5.91
2022-11-25T01:36:59.485Z,5.85
2022-11-25T01:39:32.034Z,5.84
2022-11-25T01:42:01.412Z,5.80
2022-11-25T01:44:30.785Z,5.73
2022-11-25T01:47:07.149Z,5.57
2022-11-25T01:49:41.961Z,5.48
2022-11-25T01:52:16.192Z,5.38
2022-11-25T01:54:54.945Z,5.27
2022-11-25T01:57:26.616Z,5.13
2022-11-25T01:59:57.625Z,4.96
2022-11-25T02:02:25.157Z,4.84
2022-11-25T02:04:52.881Z,4.71
2022-11-25T02:07:31.842Z,4.57
2022-11-25T02:10:04.935Z,4.47
2022-11-25T02:12:35.865Z,4.36
2022-11-25T02:15:03.982Z,4.26
2022-11-25T02:17:31.353Z,4.17
2022-11-25T02:20:31.039Z,4.09
2022-11-25T02:23:11.109Z,3.97
2022-11-25T02:25:40.613Z,3.87
2022-11-25T02:28:17.513Z,3.81
2022-11-25T02:30:46.605Z,3.71
2022-11-25T02:33:14.568Z,3.62
2022-11-25T02:36:02.002Z,3.52
2022-11-25T02:38:40.977Z,3.50
2022-11-25T02:41:20.901Z,3.47
2022-11-25T02:43:53.759Z,3.36
2022-11-25T02:46:24.214Z,3.29
2022-11-25T02:49:11.189Z,3.21
2022-11-25T02:51:44.551Z,3.16
2022-11-25T02:54:14.117Z,3.13
2022-11-25T02:56:42.498Z,3.05
2022-11-25T02:59:10.238Z,3.05
2022-11-25T03:01:38.937Z,3.03
2022-11-25T03:04:08.264Z,3.01
2022-11-25T03:06:35.941Z,2.94
2022-11-25T03:09:03.771Z,2.93
2022-11-25T03:12:03.829Z,2.90
2022-11-25T03:14:31.163Z,2.82
2022-11-25T03:17:00.602Z,2.77
2022-11-25T03:19:31.064Z,2.69
2022-11-25T03:21:58.030Z,2.64
2022-11-25T03:24:25.300Z,2.61
2022-11-25T03:26:52.295Z,2.55
2022-11-25T03:29:19.860Z,2.50
2022-11-25T03:31:47.643Z,2.43
2022-11-25T03:34:15.078Z,2.37
2022-11-25T03:36:42.452Z,2.30
2022-11-25T03:39:10.381Z,2.28
2022-11-25T03:41:38.526Z,2.28
2022-11-25T03:44:06.112Z,2.27
2022-11-25T03:46:33.426Z,2.27
2022-11-25T03:49:04.035Z,2.24
2022-11-25T03:51:31.088Z,2.24
2022-11-25T03:54:00.053Z,2.24
2022-11-25T03:56:27.246Z,2.31
2022-11-25T03:58:54.655Z,2.32
2022-11-25T04:01:23.755Z,2.35
2022-11-25T04:03:51.230Z,2.37
2022-11-25T04:06:20.229Z,2.36
2022-11-25T04:08:53.054Z,2.37
2022-11-25T04:11:21.151Z,2.39
2022-11-25T04:13:58.081Z,2.38
2022-11-25T04:16:26.552Z,2.36
2022-11-25T04:18:54.864Z,2.35
2022-11-25T04:21:21.857Z,2.34
2022-11-25T04:23:49.125Z,2.34
2022-11-25T04:26:16.197Z,2.33
2022-11-25T04:28:45.082Z,2.34
2022-11-25T04:31:14.466Z,2.38
2022-11-25T04:33:46.045Z,2.33
2022-11-25T04:36:17.330Z,2.33
2022-11-25T04:38:46.879Z,2.32
2022-11-25T04:41:13.985Z,2.28
2022-11-25T04:43:44.233Z,2.25
2022-11-25T04:46:17.851Z,2.23
2022-11-25T04:48:53.252Z,2.16
2022-11-25T04:51:21.458Z,2.10
2022-11-25T04:53:52.688Z,2.07
2022-11-25T04:56:23.419Z,2.07
2022-11-25T04:59:11.485Z,2.01
2022-11-25T05:01:45.552Z,1.91
2022-11-25T05:04:47.313Z,1.85
2022-11-25T05:07:17.049Z,1.85
2022-11-25T05:09:49.590Z,1.83
2022-11-25T05:12:26.331Z,1.84
2022-11-25T05:14:56.480Z,1.84
2022-11-25T05:17:26.695Z,1.80
2022-11-25T05:19:54.114Z,1.77
2022-11-25T05:22:26.344Z,1.76
2022-11-25T05:24:54.472Z,1.73
2022-11-25T05:27:22.653Z,1.70
2022-11-25T05:29:55.670Z,1.67
2022-11-25T05:32:26.772Z,1.64
2022-11-25T05:34:57.000Z,1.63
2022-11-25T05:37:24.864Z,1.61
2022-11-25T05:39:59.686Z,1.58
2022-11-25T05:42:52.827Z,1.49
2022-11-25T05:45:20.831Z,1.41
2022-11-25T05:47:49.768Z,1.33
2022-11-25T05:50:24.021Z,1.27
2022-11-25T05:53:03.492Z,1.20
2022-11-25T05:55:37.190Z,1.13
2022-11-25T05:58:09.029Z,1.08
2022-11-25T06:00:36.441Z,1.03
2022-11-25T06:03:08.986Z,0.99
2022-11-25T06:05:36.949Z,0.98
2022-11-25T06:08:04.414Z,0.96
2022-11-25T06:10:34.253Z,0.92
2022-11-25T06:13:01.682Z,0.89
2022-11-25T06:15:31.530Z,0.87
2022-11-25T06:18:00.197Z,0.84
2022-11-25T06:20:29.641Z,0.83
2022-11-25T06:22:58.737Z,0.79
2022-11-25T06:25:32.406Z,0.80
2022-11-25T06:28:15.239Z,0.83
2022-11-25T06:30:47.779Z,0.89
2022-11-25T06:33:27.149Z,0.93
2022-11-25T06:35:55.478Z,1.05
2022-11-25T06:38:22.750Z,1.12
2022-11-25T06:40:50.238Z,1.45
2022-11-25T06:43:17.202Z,1.62
2022-11-25T06:45:44.834Z,1.76
2022-11-25T06:48:14.464Z,1.86
2022-11-25T06:50:41.832Z,2.08
2022-11-25T06:53:08.886Z,2.14
2022-11-25T06:55:36.266Z,2.94
2022-11-25T06:58:28.270Z,3.69
2022-11-25T07:00:50.853Z,3.59
2022-11-25T07:03:17.912Z,3.37
2022-11-25T07:05:47.924Z,3.24
2022-11-25T07:08:15.055Z,3.22
2022-11-25T07:10:42.499Z,3.24
2022-11-25T07:13:09.611Z,3.37
2022-11-25T07:15:38.489Z,3.65
2022-11-25T07:18:05.833Z,4.00
2022-11-25T07:20:33.440Z,4.36
2022-11-25T07:23:03.137Z,5.66
2022-11-25T07:25:30.982Z,7.31
2022-11-25T07:27:58.089Z,8.43
2022-11-25T07:33:12.753Z,10.17
2022-11-25T07:35:40.188Z,10.68
2022-11-25T07:38:07.104Z,10.93
2022-11-25T07:40:36.961Z,11.56
2022-11-25T07:43:04.034Z,11.65
2022-11-25T07:45:32.179Z,11.78
2022-11-25T07:48:07.516Z,11.91
2022-11-25T07:50:34.823Z,11.85
2022-11-25T07:53:02.743Z,11.65
2022-11-25T07:55:32.458Z,11.13
2022-11-25T07:57:59.541Z,11.05
2022-11-25T08:00:26.887Z,10.53
2022-11-25T08:02:54.628Z,10.09
2022-11-25T08:05:22.100Z,9.73
2022-11-25T08:07:49.272Z,9.57
2022-11-25T08:10:16.664Z,9.22
2022-11-25T08:12:45.929Z,8.92
2022-11-25T08:15:13.313Z,8.91
2022-11-25T08:17:40.297Z,8.91
2022-11-25T08:20:10.450Z,8.77
2022-11-25T08:22:40.548Z,8.66
2022-11-25T08:25:08.345Z,8.63
2022-11-25T08:27:37.607Z,8.55
2022-11-25T08:30:06.388Z,8.59
2022-11-25T08:32:39.341Z,8.58
2022-11-25T08:35:07.415Z,8.52
2022-11-25T08:37:38.499Z,8.44
2022-11-25T08:40:06.569Z,8.48
2022-11-25T08:42:37.373Z,8.43
2022-11-25T08:45:06.683Z,8.42
2022-11-25T08:47:33.972Z,8.49
2022-11-25T08:50:01.318Z,8.50
2022-11-25T08:52:29.253Z,8.62
2022-11-25T08:55:01.340Z,8.60
2022-11-25T08:57:28.337Z,8.57
2022-11-25T08:59:55.754Z,8.49
2022-11-25T09:02:23.148Z,8.56
2022-11-25T09:04:50.557Z,8.80
2022-11-25T09:07:17.644Z,8.90
2022-11-25T09:09:49.936Z,8.71
2022-11-25T09:12:16.960Z,8.78
2022-11-25T09:14:46.499Z,8.83
2022-11-25T09:17:15.607Z,8.90
2022-11-25T09:19:43.031Z,8.92
2022-11-25T09:22:10.186Z,9.05
2022-11-25T09:24:37.653Z,9.03
2022-11-25T09:27:06.873Z,8.95
2022-11-25T09:29:34.318Z,8.97
2022-11-25T09:32:01.773Z,9.03
2022-11-25T09:34:29.481Z,9.03
2022-11-25T09:36:56.543Z,9.08
2022-11-25T09:39:29.604Z,9.00
2022-11-25T09:42:50.780Z,8.84
2022-11-25T09:45:44.880Z,8.96
2022-11-25T09:48:45.201Z,9.02
2022-11-25T09:51:29.955Z,9.01
2022-11-25T09:54:03.873Z,9.00
2022-11-25T09:56:37.058Z,9.04
2022-11-25T09:59:18.342Z,9.00
2022-11-25T10:02:01.755Z,8.98
2022-11-25T10:04:44.726Z,8.93
2022-11-25T10:07:21.332Z,9.01
2022-11-25T10:09:48.614Z,9.01
2022-11-25T10:12:29.548Z,9.10
2022-11-25T10:15:08.110Z,9.04
2022-11-25T10:17:52.142Z,9.07
2022-11-25T10:20:35.248Z,9.18
2022-11-25T10:23:35.056Z,9.33
2022-11-25T10:26:13.573Z,9.30
2022-11-25T10:28:44.831Z,9.34
2022-11-25T10:31:36.501Z,9.31
2022-11-25T10:34:17.176Z,9.37
2022-11-25T10:36:44.460Z,9.43
2022-11-25T10:39:27.167Z,9.52
2022-11-25T10:41:57.698Z,9.56
2022-11-25T10:44:43.375Z,9.63
2022-11-25T10:47:16.489Z,9.67
2022-11-25T10:49:51.483Z,9.62
2022-11-25T10:52:23.494Z,9.65
2022-11-25T10:55:11.501Z,9.64
2022-11-25T10:57:38.725Z,9.56
2022-11-25T11:00:12.805Z,9.64
2022-11-25T11:02:48.245Z,9.67
2022-11-25T11:05:34.087Z,9.68
2022-11-25T11:08:19.234Z,9.71
2022-11-25T11:11:07.775Z,9.70
2022-11-25T11:13:35.240Z,9.73
2022-11-25T11:16:03.638Z,9.76
2022-11-25T11:18:41.683Z,9.68
2022-11-25T11:21:40.248Z,9.65
2022-11-25T11:24:35.812Z,9.76
2022-11-25T11:27:19.473Z,9.80
2022-11-25T11:29:46.526Z,9.89
2022-11-25T11:32:23.877Z,9.98
2022-11-25T11:35:27.396Z,9.97
2022-11-25T11:38:02.020Z,9.99
2022-11-25T11:40:38.092Z,9.94
2022-11-25T11:43:14.617Z,9.89
2022-11-25T11:45:53.782Z,9.81
2022-11-25T11:48:33.546Z,9.78
2022-11-25T11:51:18.908Z,9.75
2022-11-25T11:53:54.410Z,9.76
2022-11-25T11:56:41.354Z,9.70
2022-11-25T11:59:55.588Z,9.60
2022-11-25T12:02:50.139Z,9.55
2022-11-25T12:05:25.164Z,9.53
2022-11-25T12:08:20.085Z,9.40
2022-11-25T12:10:59.312Z,9.22
2022-11-25T12:13:39.032Z,9.27
2022-11-25T12:16:19.711Z,9.24
2022-11-25T12:18:56.700Z,9.13
2022-11-25T12:21:41.594Z,9.08
2022-11-25T12:24:21.592Z,8.99
2022-11-25T12:26:57.962Z,8.98
2022-11-25T12:29:33.898Z,9.00
2022-11-25T12:32:12.518Z,9.03
2022-11-25T12:34:51.544Z,9.05
2022-11-25T12:37:32.281Z,9.16
2022-11-25T12:40:16.858Z,9.20
2022-11-25T12:42:47.395Z,9.23
2022-11-25T12:45:33.664Z,9.28
2022-11-25T12:48:01.152Z,9.29
2022-11-25T12:50:48.465Z,9.26
2022-11-25T12:53:30.464Z,9.25
2022-11-25T12:56:02.142Z,9.20
2022-11-25T12:58:50.017Z,9.16
2022-11-25T13:01:43.317Z,9.15
2022-11-25T13:04:46.067Z,9.08
2022-11-25T13:07:44.219Z,9.06
2022-11-25T13:10:43.744Z,8.99
2022-11-25T13:13:18.981Z,8.99
2022-11-25T13:15:49.029Z,9.01
2022-11-25T13:18:20.459Z,9.00
2022-11-25T13:21:05.760Z,8.99
2022-11-25T13:23:49.095Z,8.92
2022-11-25T13:26:29.062Z,8.81
2022-11-25T13:28:57.059Z,8.74
2022-11-25T13:31:31.269Z,8.73
2022-11-25T13:33:58.541Z,8.64
2022-11-25T13:36:44.765Z,8.63
2022-11-25T13:39:17.709Z,8.69
2022-11-25T13:41:58.890Z,8.69
2022-11-25T13:44:31.397Z,8.64
2022-11-25T13:47:02.919Z,8.68
2022-11-25T13:49:36.016Z,8.66
2022-11-25T13:52:26.948Z,8.59
2022-11-25T13:54:55.919Z,8.49
2022-11-25T13:57:40.318Z,8.48
2022-11-25T14:00:30.156Z,8.39
2022-11-25T14:03:20.077Z,8.30
2022-11-25T14:06:09.165Z,8.18
2022-11-25T14:08:44.858Z,8.09
2022-11-25T14:12:02.924Z,8.14
2022-11-25T14:14:39.328Z,8.09
2022-11-25T14:17:25.179Z,7.95
2022-11-25T14:20:21.237Z,7.85
2022-11-25T14:23:27.271Z,7.79
2022-11-25T14:26:08.457Z,7.72
2022-11-25T14:28:41.975Z,7.60
2022-11-25T14:31:14.753Z,7.52
2022-11-25T14:33:54.099Z,7.37
2022-11-25T14:36:36.735Z,7.15
2022-11-25T14:39:24.905Z,6.99
2022-11-25T14:42:05.045Z,6.81
2022-11-25T14:44:42.433Z,6.69
2022-11-25T14:47:09.877Z,6.59
2022-11-25T14:50:11.871Z,6.46
2022-11-25T14:52:38.474Z,6.34
2022-11-25T14:55:10.440Z,6.21
2022-11-25T14:57:43.095Z,6.10
2022-11-25T15:00:13.077Z,6.00
2022-11-25T15:02:51.850Z,5.88
2022-11-25T15:05:22.032Z,5.75
2022-11-25T15:08:09.766Z,5.63
2022-11-25T15:10:52.749Z,5.48
2022-11-25T15:13:29.818Z,5.40
2022-11-25T15:16:04.838Z,5.31
2022-11-25T15:18:35.069Z,5.24
2022-11-25T15:21:03.249Z,5.14
2022-11-25T15:23:34.926Z,5.02
2022-11-25T15:26:03.092Z,4.89
2022-11-25T15:28:35.916Z,4.81
2022-11-25T15:31:16.138Z,4.73
2022-11-25T15:33:44.653Z,4.63
2022-11-25T15:36:12.130Z,4.52
2022-11-25T15:38:45.217Z,4.42
2022-11-25T15:41:27.775Z,4.33
2022-11-25T15:44:00.712Z,4.26
2022-11-25T15:46:28.536Z,4.21
2022-11-25T15:48:59.489Z,4.16
2022-11-25T15:51:32.676Z,4.08
2022-11-25T15:54:07.963Z,4.00
2022-11-25T15:56:39.301Z,3.94
2022-11-25T15:59:50.323Z,3.88
2022-11-25T16:02:39.467Z,3.81
2022-11-25T16:05:13.243Z,3.78
2022-11-25T16:07:52.640Z,3.71
2022-11-25T16:10:20.218Z,3.66
2022-11-25T16:13:22.586Z,3.62
2022-11-25T16:15:58.194Z,3.57
2022-11-25T16:19:09.694Z,3.51
2022-11-25T16:21:39.817Z,3.47
2022-11-25T16:24:07.345Z,3.49
2022-11-25T16:26:51.655Z,3.51
2022-11-25T16:29:33.775Z,3.55
2022-11-25T16:32:10.695Z,3.58
2022-11-25T16:34:38.208Z,3.61
2022-11-25T16:37:06.055Z,3.64
2022-11-25T16:39:33.636Z,3.65
2022-11-25T16:42:04.221Z,3.70
2022-11-25T16:44:37.633Z,3.71
2022-11-25T16:47:05.726Z,3.70
2022-11-25T16:49:33.177Z,3.71
2022-11-25T16:52:01.023Z,3.72
2022-11-25T16:54:33.103Z,3.73
2022-11-25T16:57:00.893Z,3.73
2022-11-25T16:59:39.862Z,3.74
2022-11-25T17:02:21.777Z,3.75
2022-11-25T17:04:49.349Z,3.74
2022-11-25T17:07:36.025Z,3.76
2022-11-25T17:10:04.435Z,3.78
2022-11-25T17:12:34.721Z,3.81
2022-11-25T17:15:06.064Z,3.86
2022-11-25T17:17:34.494Z,3.88
2022-11-25T17:20:01.792Z,3.91
2022-11-25T17:22:33.364Z,3.93
2022-11-25T17:25:01.893Z,3.95
2022-11-25T17:27:33.131Z,3.97
2022-11-25T17:30:06.676Z,4.01
2022-11-25T17:32:35.349Z,4.03
2022-11-25T17:35:03.001Z,4.05
2022-11-25T17:37:32.032Z,4.06
2022-11-25T17:39:59.389Z,4.07
2022-11-25T17:42:30.739Z,4.08
2022-11-25T17:44:58.606Z,4.10
2022-11-25T17:47:26.688Z,4.12
2022-11-25T17:49:55.810Z,4.17
2022-11-25T17:52:23.534Z,4.18
2022-11-25T17:54:51.336Z,4.19
2022-11-25T17:57:21.796Z,4.20
2022-11-25T17:59:50.369Z,4.22
2022-11-25T18:02:21.687Z,4.27
2022-11-25T18:04:49.341Z,4.27
2022-11-25T18:07:17.860Z,4.26
2022-11-25T18:09:45.786Z,4.24
2022-11-25T18:12:36.788Z,4.28
2022-11-25T18:15:13.154Z,4.24
2022-11-25T18:17:41.682Z,4.21
2022-11-25T18:20:18.877Z,4.18
2022-11-25T18:22:47.595Z,4.13
2022-11-25T18:25:17.441Z,4.12
2022-11-25T18:27:47.943Z,4.11
2022-11-25T18:30:21.961Z,4.10
2022-11-25T18:32:50.481Z,4.11
2022-11-25T18:35:24.385Z,4.10
2022-11-25T18:37:52.561Z,4.10
2022-11-25T18:40:20.083Z,4.16
2022-11-25T18:42:53.236Z,4.14
2022-11-25T18:45:28.060Z,4.17
2022-11-25T18:48:02.546Z,4.19
2022-11-25T18:50:33.104Z,4.18
2022-11-25T18:53:01.235Z,4.16
2022-11-25T18:55:29.130Z,4.15
2022-11-25T18:58:00.324Z,4.14
2022-11-25T19:00:33.393Z,4.16
2022-11-25T19:03:15.321Z,4.16
2022-11-25T19:05:45.875Z,4.17
2022-11-25T19:08:14.827Z,4.17
2022-11-25T19:10:46.106Z,4.19
2022-11-25T19:13:36.249Z,4.24
2022-11-25T19:16:15.851Z,4.25
2022-11-25T19:18:47.799Z,4.24
2022-11-25T19:21:20.440Z,4.28
2022-11-25T19:23:49.908Z,4.35
2022-11-25T19:26:34.199Z,4.43
2022-11-25T19:29:10.254Z,4.41
2022-11-25T19:31:38.497Z,4.42
2022-11-25T19:34:22.786Z,4.40
2022-11-25T19:36:51.692Z,4.38
2022-11-25T19:39:20.474Z,4.37
2022-11-25T19:41:48.744Z,4.40
2022-11-25T19:44:17.863Z,4.40
2022-11-25T19:47:14.193Z,4.39
2022-11-25T19:49:41.232Z,4.40
2022-11-25T19:52:16.776Z,4.42
2022-11-25T19:54:45.569Z,4.39
2022-11-25T19:57:31.759Z,4.38
2022-11-25T19:59:59.929Z,4.35
2022-11-25T20:02:30.350Z,4.29
2022-11-25T20:05:01.414Z,4.24
2022-11-25T20:07:31.839Z,4.19
2022-11-25T20:10:19.587Z,4.14
2022-11-25T20:12:48.456Z,4.08
2022-11-25T20:15:24.641Z,4.07
2022-11-25T20:17:55.577Z,4.03
2022-11-25T20:20:32.232Z,4.05
2022-11-25T20:23:43.629Z,4.02
2022-11-25T20:26:49.065Z,4.01
2022-11-25T20:29:26.065Z,3.99
2022-11-25T20:31:59.175Z,3.98
2022-11-25T20:34:28.814Z,3.97
2022-11-25T20:36:57.332Z,3.96
2022-11-25T20:39:26.095Z,3.91
2022-11-25T20:41:55.563Z,3.88
2022-11-25T20:44:25.031Z,3.88
2022-11-25T20:46:53.249Z,3.85
2022-11-25T20:49:29.788Z,3.79
2022-11-25T20:51:59.578Z,3.78
2022-11-25T20:54:27.799Z,3.75
2022-11-25T20:56:57.673Z,3.73
2022-11-25T20:59:25.924Z,3.75
2022-11-25T21:01:54.902Z,3.72
2022-11-25T21:04:23.641Z,3.69
2022-11-25T21:06:52.025Z,3.69
2022-11-25T21:09:25.086Z,3.72
2022-11-25T21:11:55.181Z,3.72
2022-11-25T21:14:24.599Z,3.75
2022-11-25T21:16:52.443Z,3.81
2022-11-25T21:19:20.034Z,3.81
2022-11-25T21:21:52.156Z,3.79
2022-11-25T21:24:37.027Z,3.76
2022-11-25T21:27:14.153Z,3.73
2022-11-25T21:29:44.032Z,3.69
2022-11-25T21:32:23.860Z,3.66
2022-11-25T21:34:51.424Z,3.63
2022-11-25T21:37:35.093Z,3.60
2022-11-25T21:40:03.781Z,3.55
2022-11-25T21:42:32.662Z,3.50
2022-11-25T21:44:59.724Z,3.45
2022-11-25T21:47:30.132Z,3.38
2022-11-25T21:49:58.449Z,3.31
2022-11-25T21:52:25.784Z,3.28
2022-11-25T21:54:55.117Z,3.28
2022-11-25T21:57:27.902Z,3.33
2022-11-25T21:59:54.951Z,3.38
2022-11-25T22:02:24.315Z,3.45
2022-11-25T22:04:51.984Z,3.48
2022-11-25T22:07:19.580Z,3.42
2022-11-25T22:09:46.759Z,3.45
2022-11-25T22:12:29.456Z,3.47
2022-11-25T22:14:59.134Z,3.44
2022-11-25T22:17:29.985Z,3.39
2022-11-25T22:19:57.338Z,3.36
2022-11-25T22:22:24.899Z,3.34
2022-11-25T22:24:51.955Z,3.32
2022-11-25T22:27:36.396Z,3.27
2022-11-25T22:30:04.523Z,3.23
2022-11-25T22:32:31.875Z,3.17
2022-11-25T22:34:58.904Z,3.21
2022-11-25T22:37:26.209Z,3.15
2022-11-25T22:39:55.396Z,3.11
2022-11-25T22:42:32.466Z,3.16
2022-11-25T22:45:02.300Z,3.15
2022-11-25T22:47:42.748Z,3.19
2022-11-25T22:50:22.245Z,3.09
2022-11-25T22:52:50.587Z,3.13
2022-11-25T22:55:24.063Z,3.09
2022-11-25T22:57:54.284Z,3.03
2022-11-25T23:00:24.635Z,2.99
2022-11-25T23:02:54.337Z,2.95
2022-11-25T23:05:34.151Z,2.88
2022-11-25T23:08:20.202Z,2.85
2022-11-25T23:10:48.404Z,2.82
2022-11-25T23:13:18.555Z,2.80
2022-11-25T23:15:49.710Z,2.78
2022-11-25T23:18:38.228Z,2.79
2022-11-25T23:21:07.539Z,2.84
2022-11-25T23:23:37.554Z,2.85
2022-11-25T23:26:06.857Z,2.88
2022-11-25T23:28:34.128Z,2.93
2022-11-25T23:31:01.386Z,2.98
2022-11-25T23:33:34.810Z,3.36
2022-11-25T23:36:08.686Z,3.56
2022-11-25T23:38:51.307Z,3.76
2022-11-25T23:41:24.720Z,4.05
2022-11-25T23:43:53.180Z,4.11
2022-11-25T23:46:24.082Z,4.22
2022-11-25T23:48:57.718Z,4.37
2022-11-25T23:51:27.023Z,4.42
2022-11-25T23:53:58.166Z,4.53
2022-11-25T23:56:27.310Z,4.59
2022-11-25T23:58:55.583Z,4.69
